Time;durP1;ratioP1;P1;durP2;ratioP2;P2;SDS_P1;SDS_P2;PMS_P1;PMS_P2;Temp;Humidity;BMP_temperature;BMP_pressure;BME280_temperature;BME280_humidity;BME280_pressure;Samples;Min_cycle;Max_cycle;Signal;HPM_P1;HPM_P2
2023/10/10 00:01:38;;;;;;;11.32;3.55;;;12.60;99.90;;;;;;6212729;28;20069;-80
2023/10/10 00:04:40;;;;;;;5.47;3.33;;;12.60;99.90;;;;;;6204434;28;20046;-79
2023/10/10 00:07:44;;;;;;;10.75;3.25;;;12.60;99.90;;;;;;6204127;28;20129;-79
2023/10/10 00:10:50;;;;;;;13.38;5.60;;;12.60;99.90;;;;;;6219351;28;20125;-79
2023/10/10 00:14:04;;;;;;;11.40;4.03;;;12.50;99.90;;;;;;6226079;28;20053;-79
2023/10/10 00:17:08;;;;;;;9.85;3.65;;;12.50;99.90;;;;;;6227971;28;20054;-79
2023/10/10 00:20:17;;;;;;;20.00;5.93;;;12.40;99.90;;;;;;6226609;28;20054;-79
2023/10/10 00:23:19;;;;;;;11.13;4.63;;;12.40;99.90;;;;;;6227814;28;20078;-79
2023/10/10 00:26:23;;;;;;;6.97;2.90;;;12.40;99.90;;;;;;6228905;28;20056;-79
2023/10/10 00:29:27;;;;;;;11.32;3.95;;;12.40;99.90;;;;;;6212619;28;20133;-78
2023/10/10 00:32:35;;;;;;;8.38;2.97;;;12.30;99.90;;;;;;6224313;28;20056;-79
2023/10/10 00:35:38;;;;;;;12.23;3.25;;;12.30;99.90;;;;;;6226949;28;20045;-78
2023/10/10 00:38:41;;;;;;;14.38;5.35;;;12.20;99.90;;;;;;6227824;28;20050;-78
2023/10/10 00:41:44;;;;;;;11.85;5.32;;;12.20;99.90;;;;;;6222323;28;20088;-79
2023/10/10 00:44:47;;;;;;;16.60;5.20;;;12.10;99.90;;;;;;6212872;28;20047;-79
2023/10/10 00:47:52;;;;;;;6.80;4.25;;;12.10;99.90;;;;;;6224725;28;20430;-80
2023/10/10 00:51:05;;;;;;;12.57;4.22;;;12.10;99.90;;;;;;6227007;28;20057;-79
2023/10/10 00:54:24;;;;;;;13.43;4.13;;;12.20;99.90;;;;;;6228407;28;20045;-79
2023/10/10 00:57:27;;;;;;;13.48;5.35;;;12.20;99.90;;;;;;6218524;28;20077;-78
2023/10/10 01:00:32;;;;;;;15.38;4.70;;;12.20;99.90;;;;;;6227081;28;20061;-79
2023/10/10 01:03:34;;;;;;;17.42;4.00;;;12.20;99.90;;;;;;6226711;28;20050;-79
2023/10/10 01:06:38;;;;;;;7.00;3.00;;;12.20;99.90;;;;;;6227147;28;20046;-79
2023/10/10 01:09:51;;;;;;;16.02;3.55;;;12.20;99.90;;;;;;6226070;28;20061;-78
2023/10/10 01:12:53;;;;;;;7.93;3.53;;;12.10;99.90;;;;;;6226065;28;20042;-79
2023/10/10 01:15:57;;;;;;;7.78;4.15;;;12.10;99.90;;;;;;6226275;28;20071;-79
2023/10/10 01:18:59;;;;;;;11.13;5.22;;;12.10;99.90;;;;;;6226346;28;20046;-78
2023/10/10 01:22:09;;;;;;;11.90;4.00;;;12.00;99.90;;;;;;6228523;28;20054;-79
2023/10/10 01:25:41;;;;;;;8.70;4.55;;;12.00;99.90;;;;;;6227624;28;20049;-79
2023/10/10 01:28:43;;;;;;;9.18;3.97;;;12.00;99.90;;;;;;6228003;28;20073;-79
2023/10/10 01:31:45;;;;;;;12.50;4.47;;;11.90;99.90;;;;;;6227232;28;20507;-78
2023/10/10 01:34:47;;;;;;;10.95;4.50;;;11.90;99.90;;;;;;6226201;28;20058;-79
2023/10/10 01:37:54;;;;;;;10.70;3.95;;;11.80;99.90;;;;;;6226416;28;20070;-79
2023/10/10 01:40:58;;;;;;;15.07;4.47;;;11.80;99.90;;;;;;6229226;28;20427;-79
2023/10/10 01:44:10;;;;;;;12.07;3.90;;;11.80;99.90;;;;;;6225882;28;20064;-79
2023/10/10 01:47:25;;;;;;;10.30;3.03;;;11.80;99.90;;;;;;6226918;28;20125;-80
2023/10/10 01:50:30;;;;;;;11.57;4.68;;;11.80;99.90;;;;;;6228366;28;20046;-80
2023/10/10 01:53:33;;;;;;;13.48;4.43;;;11.80;99.90;;;;;;6215956;28;20049;-79
2023/10/10 01:56:38;;;;;;;11.57;4.75;;;11.80;99.90;;;;;;6225874;28;20041;-78
2023/10/10 01:59:40;;;;;;;8.48;5.05;;;11.80;99.90;;;;;;6224742;28;20046;-79
2023/10/10 02:02:43;;;;;;;22.65;5.28;;;11.80;99.90;;;;;;6226617;28;20048;-79
2023/10/10 02:05:45;;;;;;;14.63;4.35;;;11.80;99.90;;;;;;6225038;28;20046;-80
2023/10/10 02:08:51;;;;;;;5.45;3.50;;;11.70;99.90;;;;;;6217546;28;20057;-79
2023/10/10 02:11:54;;;;;;;6.72;3.33;;;11.70;99.90;;;;;;6202258;28;20484;-79
2023/10/10 02:14:56;;;;;;;14.80;5.88;;;11.80;99.90;;;;;;6224118;28;20058;-78
2023/10/10 02:18:04;;;;;;;11.70;4.50;;;11.70;99.90;;;;;;6218177;28;20397;-79
2023/10/10 02:21:09;;;;;;;7.35;3.33;;;11.80;99.90;;;;;;6230945;28;20053;-79
2023/10/10 02:24:36;;;;;;;4.93;3.38;;;11.80;99.90;;;;;;6218195;28;20046;-79
2023/10/10 02:27:39;;;;;;;7.05;3.97;;;11.90;99.90;;;;;;6224749;28;20052;-79
2023/10/10 02:30:41;;;;;;;10.63;3.67;;;11.90;99.90;;;;;;6225200;28;20419;-79
2023/10/10 02:33:48;;;;;;;7.28;3.95;;;11.90;99.90;;;;;;6216424;28;20046;-79
2023/10/10 02:37:09;;;;;;;14.02;4.80;;;12.00;99.90;;;;;;6224892;28;20053;-79
2023/10/10 02:40:15;;;;;;;12.82;4.55;;;12.00;99.90;;;;;;6223856;28;20045;-79
2023/10/10 02:43:32;;;;;;;9.85;4.50;;;12.00;99.90;;;;;;6210461;28;20157;-79
2023/10/10 02:46:35;;;;;;;10.35;4.82;;;12.10;99.90;;;;;;6220819;28;20049;-79
2023/10/10 02:49:38;;;;;;;14.00;4.85;;;12.10;99.90;;;;;;6225514;28;20048;-78
2023/10/10 02:52:45;;;;;;;8.02;4.32;;;12.20;99.90;;;;;;6225856;28;20130;-79
2023/10/10 02:55:51;;;;;;;11.23;4.73;;;12.20;99.90;;;;;;6224384;28;20104;-79
2023/10/10 02:58:54;;;;;;;10.32;3.78;;;12.20;99.90;;;;;;6215794;28;20116;-79
2023/10/10 03:01:59;;;;;;;12.00;4.13;;;12.20;99.90;;;;;;6226049;28;20711;-79
2023/10/10 03:05:07;;;;;;;6.93;4.68;;;12.20;99.90;;;;;;6225410;28;20042;-80
2023/10/10 03:08:13;;;;;;;;;;;12.20;99.90;;;;;;6225595;28;20045;-80
2023/10/10 03:11:35;;;;;;;14.13;3.85;;;12.10;99.90;;;;;;6217597;28;20422;-79
2023/10/10 03:14:42;;;;;;;13.82;4.50;;;12.10;99.90;;;;;;6227589;28;20053;-80
2023/10/10 03:17:48;;;;;;;11.80;4.53;;;12.10;99.90;;;;;;6230497;28;20423;-79
2023/10/10 03:21:07;;;;;;;10.85;4.13;;;12.10;99.90;;;;;;6230984;28;20050;-79
2023/10/10 03:24:15;;;;;;;13.00;3.90;;;12.00;99.90;;;;;;6231480;28;20085;-79
2023/10/10 03:30:50;;;;;;;7.93;4.90;;;12.00;99.90;;;;;;6230140;28;20045;-80
2023/10/10 03:34:11;;;;;;;8.30;5.35;;;12.00;99.90;;;;;;6229585;28;20060;-79
2023/10/10 03:37:27;;;;;;;12.98;4.00;;;12.00;99.90;;;;;;6220701;28;20133;-79
2023/10/10 03:41:11;;;;;;;16.48;5.88;;;12.00;99.90;;;;;;6229291;28;20073;-79
2023/10/10 05:24:44;;;;;;;15.13;4.80;;;11.60;99.90;;;;;;6223251;28;20065;-81
2023/10/10 05:27:48;;;;;;;7.57;3.40;;;11.60;99.90;;;;;;6267207;28;20099;-81
2023/10/10 05:30:55;;;;;;;9.32;5.03;;;11.50;99.90;;;;;;6267765;28;20046;-81
2023/10/10 05:34:02;;;;;;;8.85;5.07;;;11.50;99.90;;;;;;6267145;28;20080;-82
2023/10/10 05:37:18;;;;;;;14.70;4.35;;;11.40;99.90;;;;;;6267157;28;20049;-83
2023/10/10 05:40:33;;;;;;;9.38;4.60;;;11.40;99.90;;;;;;6258143;28;20053;-81
2023/10/10 05:44:03;;;;;;;10.25;4.88;;;11.30;99.90;;;;;;6243551;28;20041;-81
2023/10/10 05:47:08;;;;;;;10.93;4.38;;;11.30;99.90;;;;;;6264303;28;20064;-82
2023/10/10 05:50:10;;;;;;;7.45;4.07;;;11.20;99.90;;;;;;6242394;28;20038;-81
2023/10/10 05:53:12;;;;;;;11.60;3.75;;;11.20;99.90;;;;;;6248491;28;20058;-80
2023/10/10 05:56:17;;;;;;;12.43;3.67;;;11.20;99.90;;;;;;6240930;28;20050;-82
2023/10/10 05:59:19;;;;;;;8.93;4.22;;;11.20;99.90;;;;;;6233723;28;20073;-81
2023/10/10 06:02:21;;;;;;;10.40;4.63;;;11.20;99.90;;;;;;6243496;28;20069;-81
2023/10/10 06:05:26;;;;;;;11.85;4.70;;;11.20;99.90;;;;;;6243258;28;20049;-81
2023/10/10 06:08:31;;;;;;;9.85;3.95;;;11.30;99.90;;;;;;6245627;28;20049;-82
2023/10/10 06:11:34;;;;;;;9.55;4.45;;;11.30;99.90;;;;;;6241621;28;20133;-81
2023/10/10 06:14:36;;;;;;;11.43;4.30;;;11.30;99.90;;;;;;6242854;28;20091;-80
2023/10/10 06:17:38;;;;;;;6.70;3.88;;;11.30;99.90;;;;;;6242211;28;20053;-82
2023/10/10 06:20:44;;;;;;;12.95;4.82;;;11.40;99.90;;;;;;6262451;28;20042;-82
2023/10/10 06:23:48;;;;;;;8.77;5.32;;;11.50;99.90;;;;;;6257371;28;20046;-82
2023/10/10 06:30:39;;;;;;;18.48;4.82;;;11.70;99.90;;;;;;6237651;28;20068;-82
2023/10/10 06:33:56;;;;;;;10.23;4.40;;;11.80;99.90;;;;;;6266805;28;20041;-81
2023/10/10 06:36:58;;;;;;;14.70;4.63;;;12.00;99.90;;;;;;6249446;28;20426;-81
2023/10/10 06:39:59;;;;;;;16.77;4.93;;;12.10;99.90;;;;;;6242401;28;20104;-80
2023/10/10 06:43:07;;;;;;;7.05;4.93;;;12.20;99.90;;;;;;6241752;28;20061;-81
2023/10/10 06:46:16;;;;;;;;;;;12.30;99.90;;;;;;6241437;28;20052;-80
2023/10/10 06:49:20;;;;;;;;;;;12.50;99.90;;;;;;6237543;28;19909;-81
2023/10/10 06:52:52;;;;;;;13.38;4.43;;;12.60;99.90;;;;;;6242819;28;19921;-81
2023/10/10 06:56:14;;;;;;;12.43;4.10;;;12.70;99.90;;;;;;6248450;28;20057;-81
2023/10/10 06:59:26;;;;;;;4.65;3.47;;;13.00;99.90;;;;;;6238138;28;20073;-81
2023/10/10 07:02:39;;;;;;;12.10;5.82;;;13.10;99.90;;;;;;6239211;28;20049;-81
2023/10/10 07:05:49;;;;;;;12.10;5.63;;;13.40;99.90;;;;;;6260695;28;20045;-80
2023/10/10 07:09:28;;;;;;;16.27;4.65;;;13.70;99.90;;;;;;6258159;28;20203;-79
2023/10/10 07:12:34;;;;;;;8.23;4.93;;;14.00;99.90;;;;;;6211195;28;20133;-79
2023/10/10 07:15:39;;;;;;;12.85;5.00;;;14.30;99.90;;;;;;6238600;28;20495;-81
2023/10/10 07:18:42;;;;;;;17.13;5.63;;;14.70;99.90;;;;;;6197621;28;20072;-80
2023/10/10 07:21:43;;;;;;;12.38;4.65;;;15.10;99.90;;;;;;6255937;28;20056;-79
2023/10/10 07:28:52;;;;;;;12.73;3.70;;;15.80;99.90;;;;;;6113515;29;20050;-81
2023/10/10 07:42:37;;;;;;;15.52;4.28;;;17.50;99.90;;;;;;6228256;28;20050;-80
2023/10/10 07:46:21;;;;;;;10.52;4.35;;;17.90;99.90;;;;;;6222820;28;20045;-79
2023/10/10 07:49:31;;;;;;;14.05;5.75;;;18.30;99.90;;;;;;6220455;28;20145;-79
2023/10/10 07:52:51;;;;;;;7.55;4.63;;;18.50;99.90;;;;;;6214744;28;20092;-82
2023/10/10 07:56:17;;;;;;;20.27;4.55;;;18.70;99.90;;;;;;6247209;28;20058;-78
2023/10/10 07:59:19;;;;;;;14.48;5.05;;;18.80;99.90;;;;;;6202352;28;20049;-79
2023/10/10 08:02:24;;;;;;;9.15;3.55;;;18.90;99.90;;;;;;6229713;28;20481;-79
2023/10/10 08:09:18;;;;;;;14.43;4.10;;;19.60;99.90;;;;;;6234463;28;20132;-77
2023/10/10 08:12:23;;;;;;;14.25;4.93;;;19.80;99.90;;;;;;6231621;28;20056;-79
2023/10/10 08:15:46;;;;;;;19.63;3.78;;;20.20;99.90;;;;;;6252613;28;20056;-83
2023/10/10 08:19:04;;;;;;;14.15;3.83;;;20.70;99.50;;;;;;6262030;28;20050;-80
2023/10/10 08:22:29;;;;;;;;;;;;;;;;;;;;;
2023/10/10 08:25:41;;;;;;;12.32;4.78;;;21.90;96.00;;;;;;6246424;28;20068;-82
2023/10/10 08:28:47;;;;;;;10.95;5.15;;;22.10;95.30;;;;;;6241888;28;20072;-81
2023/10/10 08:31:53;;;;;;;15.13;4.05;;;22.70;93.70;;;;;;6242207;28;20042;-83
2023/10/10 08:34:56;;;;;;;7.38;3.58;;;23.20;92.00;;;;;;6240773;28;20131;-80
2023/10/10 08:37:59;;;;;;;8.70;4.32;;;23.40;90.50;;;;;;6231685;28;20510;-79
2023/10/10 08:41:33;;;;;;;8.70;4.32;;;23.40;88.30;;;;;;6235509;28;20041;-81
2023/10/10 08:44:47;;;;;;;8.23;3.17;;;23.30;85.90;;;;;;6229590;28;20056;-79
2023/10/10 08:48:13;;;;;;;7.47;3.35;;;23.20;85.10;;;;;;6241660;28;20172;-80
2023/10/10 08:51:20;;;;;;;11.27;3.47;;;23.10;84.50;;;;;;6225996;28;22071;-79
2023/10/10 08:58:19;;;;;;;11.30;4.53;;;23.40;82.40;;;;;;6220074;28;20052;-82
2023/10/10 09:01:22;;;;;;;10.90;4.28;;;23.70;81.20;;;;;;6228130;28;20053;-82
2023/10/10 09:04:30;;;;;;;7.47;3.70;;;24.00;80.30;;;;;;6238974;28;20057;-80
2023/10/10 09:11:20;;;;;;;7.47;3.97;;;24.00;76.40;;;;;;6158004;28;20146;-82
2023/10/10 09:14:50;;;;;;;10.15;3.63;;;23.90;76.70;;;;;;6233429;28;20049;-81
2023/10/10 09:18:22;;;;;;;15.63;4.53;;;24.00;77.10;;;;;;6223418;28;20065;-81
2023/10/10 09:25:48;;;;;;;11.32;4.22;;;24.00;76.20;;;;;;6213935;28;20170;-80
2023/10/10 09:28:55;;;;;;;10.82;4.20;;;23.90;76.40;;;;;;6228574;28;20074;-80
2023/10/10 09:32:06;;;;;;;7.00;3.80;;;23.70;76.20;;;;;;6238919;28;20046;-79
2023/10/10 09:35:28;;;;;;;13.77;4.40;;;23.70;77.20;;;;;;6250241;28;20057;-79
2023/10/10 09:39:08;;;;;;;15.48;4.25;;;24.00;76.40;;;;;;6228419;28;20046;-78
2023/10/10 09:42:53;;;;;;;16.63;4.35;;;24.10;76.10;;;;;;6209248;28;20042;-80
2023/10/10 09:46:19;;;;;;;10.52;4.85;;;24.20;76.00;;;;;;6219265;28;20050;-81
2023/10/10 09:49:35;;;;;;;9.40;2.97;;;24.60;76.20;;;;;;6239677;28;20041;-82
2023/10/10 09:52:50;;;;;;;8.65;2.90;;;25.00;75.10;;;;;;6237051;28;20045;-82
2023/10/10 09:56:14;;;;;;;9.15;3.58;;;25.20;74.10;;;;;;6232190;28;20076;-80
2023/10/10 09:59:19;;;;;;;15.18;4.45;;;25.40;74.00;;;;;;6250400;28;20057;-81
2023/10/10 10:02:40;;;;;;;8.25;3.95;;;25.80;73.20;;;;;;6236561;28;20046;-84
2023/10/10 10:13:19;;;;;;;16.73;3.42;;;26.20;71.60;;;;;;6224805;28;20038;-83
2023/10/10 10:16:37;;;;;;;7.13;3.80;;;26.20;70.90;;;;;;6213961;28;20046;-81
2023/10/10 10:19:45;;;;;;;;;;;26.20;70.70;;;;;;6219284;28;20067;-81
2023/10/10 10:23:25;;;;;;;8.80;3.13;;;26.10;71.30;;;;;;6238341;28;19932;-81
2023/10/10 10:26:45;;;;;;;14.30;4.70;;;26.00;70.80;;;;;;6230294;28;20060;-81
2023/10/10 10:29:53;;;;;;;10.88;3.92;;;26.00;71.40;;;;;;6248350;28;20057;-82
2023/10/10 10:32:58;;;;;;;8.35;4.95;;;26.10;70.70;;;;;;6237232;28;20046;-80
2023/10/10 10:36:19;;;;;;;11.32;3.70;;;26.40;70.50;;;;;;6226375;28;20050;-82
2023/10/10 10:39:34;;;;;;;9.30;4.03;;;26.70;70.00;;;;;;6222969;28;20100;-81
2023/10/10 10:42:42;;;;;;;6.90;3.53;;;27.00;69.50;;;;;;6238505;28;20045;-83
2023/10/10 10:46:11;;;;;;;8.45;3.42;;;27.10;69.20;;;;;;6219463;28;20224;-82
2023/10/10 10:49:22;;;;;;;11.95;4.72;;;27.20;68.20;;;;;;6217173;28;20042;-81
2023/10/10 10:52:49;;;;;;;10.00;3.60;;;27.20;68.00;;;;;;6233239;28;20038;-82
2023/10/10 10:56:37;;;;;;;14.65;4.97;;;27.10;68.10;;;;;;6225407;28;20157;-80
2023/10/10 10:59:35;;;;;;;6.50;3.30;;;27.30;67.90;;;;;;6152109;28;20051;-83
2023/10/10 11:02:38;;;;;;;9.73;2.65;;;27.40;67.60;;;;;;6155500;28;20047;-79
2023/10/10 11:05:41;;;;;;;9.27;3.95;;;27.60;66.60;;;;;;6156618;28;20129;-82
2023/10/10 11:08:52;;;;;;;12.80;4.75;;;27.60;66.20;;;;;;6156627;28;20040;-77
2023/10/10 11:11:58;;;;;;;11.27;5.22;;;27.60;65.40;;;;;;6155048;28;20062;-80
2023/10/10 11:15:07;;;;;;;9.38;3.53;;;27.50;65.50;;;;;;6158790;28;20043;-78
2023/10/10 11:18:10;;;;;;;10.52;4.97;;;27.60;64.70;;;;;;6157277;28;20055;-78
2023/10/10 11:21:12;;;;;;;7.68;4.60;;;27.40;64.10;;;;;;6145692;28;20428;-80
2023/10/10 11:24:23;;;;;;;10.40;3.70;;;27.40;64.00;;;;;;6152523;28;20366;-79
2023/10/10 11:27:29;;;;;;;9.10;3.55;;;27.20;63.30;;;;;;6156746;28;20122;-80
2023/10/10 11:30:33;;;;;;;11.25;3.22;;;26.90;63.40;;;;;;6144796;28;20510;-79
2023/10/10 11:33:48;;;;;;;10.77;3.47;;;26.70;63.50;;;;;;6158760;28;20043;-79
2023/10/10 11:36:51;;;;;;;10.40;3.35;;;26.50;63.00;;;;;;6154590;28;20551;-80
2023/10/10 11:40:19;;;;;;;9.75;3.03;;;26.50;63.10;;;;;;6153475;29;20516;-79
2023/10/10 11:43:22;;;;;;;6.20;2.53;;;26.50;63.10;;;;;;6159241;28;20150;-80
2023/10/10 11:46:25;;;;;;;10.77;4.43;;;26.40;63.10;;;;;;6153107;28;20043;-79
2023/10/10 11:49:27;;;;;;;9.95;3.55;;;26.40;63.20;;;;;;6160800;28;20051;-79
2023/10/10 11:52:29;;;;;;;6.75;3.22;;;26.60;63.00;;;;;;6160693;28;20443;-78
2023/10/10 11:55:34;;;;;;;4.43;2.35;;;26.50;62.80;;;;;;6160618;28;20043;-79
2023/10/10 11:58:36;;;;;;;7.72;2.95;;;26.60;62.30;;;;;;6160377;28;20054;-79
2023/10/10 12:01:51;;;;;;;13.98;3.30;;;26.60;62.10;;;;;;6160129;28;20043;-78
2023/10/10 12:04:53;;;;;;;10.32;3.72;;;26.60;62.10;;;;;;6160262;28;20428;-78
2023/10/10 12:07:55;;;;;;;9.25;4.03;;;26.80;62.10;;;;;;6160196;28;21637;-77
2023/10/10 12:11:06;;;;;;;12.15;3.85;;;26.90;61.30;;;;;;6161336;28;20207;-79
2023/10/10 12:14:16;;;;;;;8.90;3.70;;;26.90;61.40;;;;;;6162183;29;20055;-79
2023/10/10 12:17:21;;;;;;;12.13;3.78;;;26.90;61.20;;;;;;6157035;29;20047;-79
2023/10/10 12:20:25;;;;;;;9.07;2.83;;;26.90;61.40;;;;;;6154214;28;20060;-79
2023/10/10 12:23:26;;;;;;;8.43;3.08;;;27.00;61.30;;;;;;6155642;28;20051;-79
2023/10/10 12:26:30;;;;;;;8.18;4.00;;;27.10;61.30;;;;;;6161639;28;20043;-79
2023/10/10 12:29:31;;;;;;;9.45;4.32;;;27.20;61.10;;;;;;6161904;28;20382;-78
2023/10/10 12:32:34;;;;;;;9.70;3.30;;;27.30;61.00;;;;;;6155778;28;20049;-78
2023/10/10 12:35:36;;;;;;;13.02;3.45;;;27.40;61.00;;;;;;6160726;28;20058;-78
2023/10/10 12:38:38;;;;;;;9.75;3.30;;;27.50;60.70;;;;;;6154595;29;20055;-78
2023/10/10 12:41:46;;;;;;;8.00;3.38;;;27.70;60.90;;;;;;6161308;28;20055;-79
2023/10/10 12:44:48;;;;;;;13.88;4.13;;;27.80;60.40;;;;;;6159339;28;20051;-79
2023/10/10 12:47:50;;;;;;;10.68;3.25;;;27.70;60.40;;;;;;6160590;28;20055;-79
2023/10/10 12:50:52;;;;;;;8.40;3.03;;;27.80;60.40;;;;;;6161631;28;20083;-80
2023/10/10 12:53:59;;;;;;;8.60;4.10;;;27.90;60.10;;;;;;6157668;28;20050;-79
2023/10/10 12:57:06;;;;;;;10.15;3.05;;;27.90;59.90;;;;;;6158690;28;20051;-79
2023/10/10 13:00:24;;;;;;;6.85;3.55;;;27.90;59.60;;;;;;6158945;28;20496;-80
2023/10/10 13:03:28;;;;;;;7.97;3.65;;;27.80;59.50;;;;;;6142998;28;20059;-80
2023/10/10 13:06:30;;;;;;;7.10;3.65;;;27.80;59.70;;;;;;6156130;29;20103;-80
2023/10/10 13:09:33;;;;;;;14.23;4.03;;;27.90;59.00;;;;;;6157684;28;20043;-82
2023/10/10 13:12:36;;;;;;;8.70;3.78;;;28.10;58.30;;;;;;6157206;28;20043;-79
2023/10/10 13:15:54;;;;;;;10.55;2.33;;;28.30;57.10;;;;;;6151583;28;20543;-81
2023/10/10 13:18:57;;;;;;;12.60;3.08;;;28.40;56.80;;;;;;6158541;28;20055;-80
2023/10/10 13:21:58;;;;;;;15.68;3.97;;;28.70;55.90;;;;;;6152442;29;20051;-80
2023/10/10 13:25:00;;;;;;;9.80;4.53;;;28.90;55.00;;;;;;6156593;28;20047;-80
2023/10/10 13:28:09;;;;;;;7.15;3.58;;;28.90;54.10;;;;;;6158913;28;20189;-81
2023/10/10 13:31:10;;;;;;;10.15;3.05;;;28.90;53.50;;;;;;6158948;28;20187;-80
2023/10/10 13:34:13;;;;;;;11.00;3.53;;;28.80;52.90;;;;;;6157820;28;20054;-80
2023/10/10 13:37:15;;;;;;;10.48;3.58;;;28.80;52.70;;;;;;6148409;28;20115;-80
2023/10/10 13:40:22;;;;;;;9.27;2.83;;;28.80;53.40;;;;;;6159594;28;20140;-79
2023/10/10 13:43:26;;;;;;;7.45;4.53;;;28.90;52.60;;;;;;6159012;28;20043;-80
2023/10/10 13:46:28;;;;;;;5.30;3.42;;;29.00;52.60;;;;;;6159766;29;20158;-81
2023/10/10 13:49:30;;;;;;;9.73;3.10;;;28.90;52.20;;;;;;6167848;28;20057;-80
2023/10/10 13:52:32;;;;;;;14.60;4.15;;;28.90;52.30;;;;;;6157658;28;20047;-80
2023/10/10 13:55:34;;;;;;;11.38;4.18;;;28.90;52.30;;;;;;6160027;28;20075;-80
2023/10/10 13:58:40;;;;;;;7.68;2.95;;;28.90;52.30;;;;;;6162318;29;20047;-80
2023/10/10 14:01:42;;;;;;;3.78;2.25;;;29.00;52.10;;;;;;6160451;28;20493;-79
2023/10/10 14:04:48;;;;;;;8.05;3.33;;;29.00;51.70;;;;;;6158161;28;20524;-79
2023/10/10 14:07:50;;;;;;;6.50;4.18;;;28.90;51.60;;;;;;6157640;28;20094;-79
2023/10/10 14:10:54;;;;;;;6.75;3.85;;;28.60;51.60;;;;;;6159624;28;20066;-79
2023/10/10 14:13:57;;;;;;;5.80;3.20;;;28.30;51.60;;;;;;6158837;29;20058;-80
2023/10/10 14:16:59;;;;;;;7.85;4.00;;;28.10;51.50;;;;;;6146768;28;20044;-81
2023/10/10 14:20:00;;;;;;;10.48;3.40;;;28.00;51.90;;;;;;6160487;28;20047;-80
2023/10/10 14:23:03;;;;;;;11.65;3.58;;;28.00;51.90;;;;;;6155705;28;21190;-80
2023/10/10 14:26:12;;;;;;;5.75;3.03;;;27.90;51.80;;;;;;6153081;28;20047;-82
2023/10/10 14:29:16;;;;;;;5.47;3.22;;;27.90;52.80;;;;;;6159939;28;20055;-79
2023/10/10 14:32:18;;;;;;;8.05;3.30;;;27.90;52.30;;;;;;6158038;28;20038;-79
2023/10/10 14:35:22;;;;;;;9.82;3.47;;;27.90;52.40;;;;;;6159092;28;20049;-81
2023/10/10 14:38:24;;;;;;;5.35;2.75;;;27.90;52.20;;;;;;6159523;29;20057;-79
2023/10/10 14:41:30;;;;;;;11.32;3.90;;;27.90;52.50;;;;;;6159187;28;20053;-79
2023/10/10 14:44:33;;;;;;;17.52;4.22;;;27.80;52.30;;;;;;6158847;28;20059;-82
2023/10/10 14:47:39;;;;;;;9.95;4.22;;;27.80;52.50;;;;;;6161023;28;20043;-80
2023/10/10 14:50:40;;;;;;;9.30;4.30;;;27.70;52.70;;;;;;6163621;28;20082;-79
2023/10/10 14:53:42;;;;;;;8.75;3.53;;;27.50;52.80;;;;;;6141765;28;20045;-81
2023/10/10 14:56:46;;;;;;;10.85;3.47;;;27.30;53.10;;;;;;6151420;28;20066;-81
2023/10/10 14:59:49;;;;;;;9.50;3.40;;;27.20;53.20;;;;;;6157407;28;20047;-81
2023/10/10 15:02:53;;;;;;;8.70;5.13;;;27.10;53.10;;;;;;6153215;29;20047;-79
2023/10/10 15:05:55;;;;;;;12.00;3.92;;;26.90;53.50;;;;;;6158184;28;20058;-81
2023/10/10 15:08:57;;;;;;;8.82;2.80;;;26.70;53.90;;;;;;6156751;28;20112;-80
2023/10/10 15:12:01;;;;;;;7.45;3.40;;;26.50;53.90;;;;;;6153649;28;20453;-84
2023/10/10 15:15:05;;;;;;;8.75;3.28;;;26.30;54.00;;;;;;6157665;28;20047;-82
2023/10/10 15:18:06;;;;;;;7.78;3.75;;;26.00;54.20;;;;;;6156399;29;20126;-80
2023/10/10 15:21:08;;;;;;;9.57;3.22;;;25.80;54.40;;;;;;6157578;28;20039;-83
2023/10/10 15:24:11;;;;;;;10.52;4.93;;;25.60;54.50;;;;;;6151947;28;20070;-81
2023/10/10 15:27:13;;;;;;;7.97;3.25;;;25.30;54.70;;;;;;6165517;28;20043;-80
2023/10/10 15:30:16;;;;;;;5.50;3.63;;;25.10;54.80;;;;;;6169618;28;20047;-80
2023/10/10 15:33:18;;;;;;;4.57;2.40;;;24.90;55.20;;;;;;6165345;28;20043;-82
2023/10/10 15:36:20;;;;;;;9.00;3.47;;;24.70;55.80;;;;;;6162434;28;20055;-81
2023/10/10 15:39:23;;;;;;;16.23;5.50;;;24.50;56.00;;;;;;6152120;28;20492;-79
2023/10/10 15:42:25;;;;;;;13.93;3.70;;;24.40;56.30;;;;;;6159574;28;20492;-82
2023/10/10 15:45:37;;;;;;;8.07;3.78;;;24.20;56.50;;;;;;6161914;28;20419;-82
2023/10/10 15:48:42;;;;;;;7.75;3.17;;;24.10;56.80;;;;;;6152629;28;20043;-84
2023/10/10 15:51:44;;;;;;;9.75;2.95;;;23.90;56.90;;;;;;6145164;28;20050;-82
2023/10/10 15:54:50;;;;;;;7.00;4.00;;;23.80;57.00;;;;;;6149637;28;20047;-82
2023/10/10 15:57:53;;;;;;;5.28;2.90;;;23.60;57.10;;;;;;6158536;28;20529;-82
2023/10/10 16:00:57;;;;;;;11.85;3.50;;;23.50;57.40;;;;;;6153999;28;20062;-82
2023/10/10 16:04:05;;;;;;;11.18;4.78;;;23.30;57.70;;;;;;6157659;28;20052;-79
2023/10/10 16:07:06;;;;;;;11.75;4.55;;;23.10;57.50;;;;;;6155534;28;20055;-80
2023/10/10 16:10:08;;;;;;;7.47;2.85;;;22.90;57.80;;;;;;6151674;29;22222;-80
2023/10/10 16:13:10;;;;;;;13.52;4.30;;;22.70;58.40;;;;;;6159238;28;20039;-81
2023/10/10 16:16:14;;;;;;;8.02;3.00;;;22.60;59.70;;;;;;6155072;28;20126;-83
2023/10/10 16:19:20;;;;;;;9.60;3.47;;;22.40;60.70;;;;;;6143953;28;20043;-82
2023/10/10 16:22:23;;;;;;;8.00;3.13;;;22.10;61.70;;;;;;6157493;29;20150;-80
2023/10/10 16:25:24;;;;;;;5.72;3.03;;;21.90;62.60;;;;;;6150412;28;20058;-82
2023/10/10 16:28:27;;;;;;;8.90;3.38;;;21.70;63.60;;;;;;6160039;28;20047;-81
2023/10/10 16:31:32;;;;;;;9.35;3.10;;;21.50;64.10;;;;;;6156260;28;20421;-81
2023/10/10 16:34:34;;;;;;;10.13;3.67;;;21.40;64.50;;;;;;6159025;29;20043;-80
2023/10/10 16:37:36;;;;;;;8.60;4.25;;;21.20;65.00;;;;;;6159720;28;20050;-81
2023/10/10 16:40:38;;;;;;;6.35;3.10;;;21.00;65.80;;;;;;6160894;28;20366;-82
2023/10/10 16:43:41;;;;;;;7.88;4.22;;;20.80;66.50;;;;;;6159648;28;20061;-82
2023/10/10 16:46:47;;;;;;;13.55;3.55;;;20.60;67.10;;;;;;6160673;29;20447;-82
2023/10/10 16:49:49;;;;;;;10.88;3.40;;;20.40;67.80;;;;;;6159947;28;20050;-82
2023/10/10 16:52:51;;;;;;;8.05;3.67;;;20.20;68.30;;;;;;6145348;28;20119;-80
2023/10/10 16:55:53;;;;;;;10.82;4.47;;;20.00;68.90;;;;;;6153203;28;20419;-81
2023/10/10 16:58:55;;;;;;;7.75;3.28;;;19.70;69.60;;;;;;6151736;28;20063;-81
2023/10/10 17:01:59;;;;;;;11.57;3.72;;;19.50;70.30;;;;;;6153442;28;20580;-81
2023/10/10 17:05:04;;;;;;;6.45;3.88;;;19.30;71.00;;;;;;6158324;28;20076;-80
2023/10/10 17:08:06;;;;;;;10.05;3.13;;;19.00;71.50;;;;;;6152234;28;20118;-79
2023/10/10 17:11:09;;;;;;;8.77;3.40;;;18.80;72.10;;;;;;6157251;28;20527;-82
2023/10/10 17:14:12;;;;;;;9.40;3.50;;;18.60;72.80;;;;;;6152552;28;20054;-81
2023/10/10 17:17:15;;;;;;;5.03;2.75;;;18.50;73.50;;;;;;6154259;28;20449;-82
2023/10/10 17:20:16;;;;;;;9.73;3.90;;;18.30;74.30;;;;;;6158547;28;20051;-80
2023/10/10 17:23:18;;;;;;;6.63;2.15;;;18.10;74.80;;;;;;6148235;28;20114;-81
2023/10/10 17:26:21;;;;;;;6.50;3.40;;;18.00;75.60;;;;;;6158072;29;20650;-81
2023/10/10 17:29:24;;;;;;;8.60;3.65;;;17.90;76.40;;;;;;6154960;28;20069;-81
2023/10/10 17:32:27;;;;;;;8.30;2.97;;;17.80;76.90;;;;;;6158553;28;20059;-80
2023/10/10 17:35:31;;;;;;;7.30;2.97;;;17.80;77.40;;;;;;6156011;28;20051;-79
2023/10/10 17:38:33;;;;;;;12.82;4.22;;;17.70;77.70;;;;;;6148289;29;20050;-80
2023/10/10 17:41:35;;;;;;;14.27;3.70;;;17.70;78.00;;;;;;6157928;28;20070;-79
2023/10/10 17:44:37;;;;;;;10.27;3.83;;;17.70;78.40;;;;;;6156217;28;20050;-80
2023/10/10 17:47:40;;;;;;;5.18;2.95;;;17.60;78.70;;;;;;6157287;28;20050;-80
2023/10/10 17:50:44;;;;;;;13.10;4.53;;;17.60;79.20;;;;;;6157604;29;20057;-79
2023/10/10 17:53:46;;;;;;;9.23;3.75;;;17.60;79.60;;;;;;6151394;28;20043;-82
2023/10/10 17:56:48;;;;;;;8.85;3.50;;;17.60;80.00;;;;;;6156828;28;20432;-80
2023/10/10 17:59:52;;;;;;;6.85;3.80;;;17.50;80.40;;;;;;6158077;28;20057;-81
2023/10/10 18:02:55;;;;;;;9.82;3.20;;;17.50;80.90;;;;;;6136798;29;20146;-82
2023/10/10 18:05:57;;;;;;;24.80;3.88;;;17.50;81.40;;;;;;6134976;29;20056;-81
2023/10/10 18:09:00;;;;;;;6.78;3.55;;;17.50;81.70;;;;;;6157008;28;20051;-82
2023/10/10 18:12:02;;;;;;;9.00;4.28;;;17.40;82.00;;;;;;6151074;28;20478;-80
2023/10/10 18:15:07;;;;;;;10.02;3.50;;;17.40;82.60;;;;;;6156571;28;20051;-80
2023/10/10 18:18:10;;;;;;;10.02;3.92;;;17.30;83.10;;;;;;6151439;29;20050;-82
2023/10/10 18:21:12;;;;;;;13.38;3.75;;;17.30;83.80;;;;;;6154951;28;20058;-80
2023/10/10 18:24:14;;;;;;;11.07;3.22;;;17.20;84.20;;;;;;6150793;28;20074;-82
2023/10/10 18:27:17;;;;;;;9.98;4.03;;;17.10;84.80;;;;;;6144270;28;20055;-80
2023/10/10 18:30:20;;;;;;;10.40;4.93;;;17.00;85.50;;;;;;6146519;28;20043;-80
2023/10/10 18:33:26;;;;;;;6.57;3.40;;;16.90;86.10;;;;;;6156460;28;20035;-80
2023/10/10 18:36:28;;;;;;;7.63;3.85;;;16.90;86.90;;;;;;6151460;28;20039;-81